sensor_id;sensor_type;location;lat;lon;timestamp;P1;durP1;ratioP1;P2;durP2;ratioP2
60859;SDS011;46694;54.382;9.708;2023-04-26T00:02:29;24.90;;;2.38;;
60859;SDS011;46694;54.382;9.708;2023-04-26T00:05:09;10.90;;;1.52;;
60859;SDS011;46694;54.382;9.708;2023-04-26T00:07:48;21.73;;;2.08;;
60859;SDS011;46694;54.382;9.708;2023-04-26T00:10:28;16.15;;;2.40;;
60859;SDS011;46694;54.382;9.708;2023-04-26T00:13:08;11.00;;;1.95;;
60859;SDS011;46694;54.382;9.708;2023-04-26T00:15:48;9.75;;;2.20;;
60859;SDS011;46694;54.382;9.708;2023-04-26T00:18:28;19.60;;;2.40;;
60859;SDS011;46694;54.382;9.708;2023-04-26T00:21:07;20.73;;;2.10;;
60859;SDS011;46694;54.382;9.708;2023-04-26T00:23:46;21.25;;;2.72;;
60859;SDS011;46694;54.382;9.708;2023-04-26T00:26:26;25.70;;;2.60;;
60859;SDS011;46694;54.382;9.708;2023-04-26T00:29:06;13.95;;;2.40;;
60859;SDS011;46694;54.382;9.708;2023-04-26T00:31:45;12.32;;;2.20;;
60859;SDS011;46694;54.382;9.708;2023-04-26T00:34:30;27.88;;;3.05;;
60859;SDS011;46694;54.382;9.708;2023-04-26T00:37:14;15.13;;;3.88;;
60859;SDS011;46694;54.382;9.708;2023-04-26T00:39:54;10.50;;;2.45;;
60859;SDS011;46694;54.382;9.708;2023-04-26T00:42:34;24.23;;;2.70;;
60859;SDS011;46694;54.382;9.708;2023-04-26T00:45:16;14.77;;;2.45;;
60859;SDS011;46694;54.382;9.708;2023-04-26T00:47:56;8.27;;;2.97;;
60859;SDS011;46694;54.382;9.708;2023-04-26T00:50:40;16.33;;;2.92;;
60859;SDS011;46694;54.382;9.708;2023-04-26T00:53:20;6.90;;;1.80;;
60859;SDS011;46694;54.382;9.708;2023-04-26T00:55:59;18.73;;;2.65;;
60859;SDS011;46694;54.382;9.708;2023-04-26T00:58:40;23.60;;;2.53;;
60859;SDS011;46694;54.382;9.708;2023-04-26T01:01:19;17.23;;;2.30;;
60859;SDS011;46694;54.382;9.708;2023-04-26T01:03:59;16.10;;;2.42;;
60859;SDS011;46694;54.382;9.708;2023-04-26T01:06:39;9.35;;;2.42;;
60859;SDS011;46694;54.382;9.708;2023-04-26T01:09:19;12.05;;;2.13;;
60859;SDS011;46694;54.382;9.708;2023-04-26T01:11:59;11.55;;;3.22;;
60859;SDS011;46694;54.382;9.708;2023-04-26T01:14:39;32.70;;;3.42;;
60859;SDS011;46694;54.382;9.708;2023-04-26T01:17:18;11.10;;;2.40;;
60859;SDS011;46694;54.382;9.708;2023-04-26T01:19:58;10.82;;;2.70;;
60859;SDS011;46694;54.382;9.708;2023-04-26T01:22:37;8.02;;;2.58;;
60859;SDS011;46694;54.382;9.708;2023-04-26T01:25:17;11.93;;;2.25;;
60859;SDS011;46694;54.382;9.708;2023-04-26T01:27:57;7.05;;;1.92;;
60859;SDS011;46694;54.382;9.708;2023-04-26T01:30:37;11.55;;;2.22;;
60859;SDS011;46694;54.382;9.708;2023-04-26T01:33:16;10.55;;;2.38;;
60859;SDS011;46694;54.382;9.708;2023-04-26T01:35:56;10.85;;;2.40;;
60859;SDS011;46694;54.382;9.708;2023-04-26T01:38:35;14.90;;;2.13;;
60859;SDS011;46694;54.382;9.708;2023-04-26T01:41:15;6.82;;;2.22;;
60859;SDS011;46694;54.382;9.708;2023-04-26T01:43:54;14.75;;;2.05;;
60859;SDS011;46694;54.382;9.708;2023-04-26T01:46:34;18.67;;;2.53;;
60859;SDS011;46694;54.382;9.708;2023-04-26T01:49:13;12.63;;;2.70;;
60859;SDS011;46694;54.382;9.708;2023-04-26T01:51:53;16.25;;;2.90;;
60859;SDS011;46694;54.382;9.708;2023-04-26T01:54:33;4.53;;;1.75;;
60859;SDS011;46694;54.382;9.708;2023-04-26T01:57:13;12.02;;;2.83;;
60859;SDS011;46694;54.382;9.708;2023-04-26T01:59:52;18.20;;;2.78;;
60859;SDS011;46694;54.382;9.708;2023-04-26T02:02:33;9.80;;;1.67;;
60859;SDS011;46694;54.382;9.708;2023-04-26T02:05:13;17.38;;;3.00;;
60859;SDS011;46694;54.382;9.708;2023-04-26T02:07:52;17.83;;;2.75;;
60859;SDS011;46694;54.382;9.708;2023-04-26T02:10:32;7.38;;;2.30;;
60859;SDS011;46694;54.382;9.708;2023-04-26T02:13:11;18.63;;;2.63;;
60859;SDS011;46694;54.382;9.708;2023-04-26T02:15:52;5.60;;;1.60;;
60859;SDS011;46694;54.382;9.708;2023-04-26T02:18:32;8.80;;;1.95;;
60859;SDS011;46694;54.382;9.708;2023-04-26T02:21:11;14.65;;;2.80;;
60859;SDS011;46694;54.382;9.708;2023-04-26T02:23:51;9.27;;;1.85;;
60859;SDS011;46694;54.382;9.708;2023-04-26T02:26:31;14.48;;;1.55;;
60859;SDS011;46694;54.382;9.708;2023-04-26T02:29:10;17.67;;;3.47;;
60859;SDS011;46694;54.382;9.708;2023-04-26T02:31:50;8.77;;;1.90;;
60859;SDS011;46694;54.382;9.708;2023-04-26T02:34:29;17.02;;;2.42;;
60859;SDS011;46694;54.382;9.708;2023-04-26T02:37:09;12.88;;;2.63;;
60859;SDS011;46694;54.382;9.708;2023-04-26T02:39:49;15.48;;;2.15;;
60859;SDS011;46694;54.382;9.708;2023-04-26T02:42:29;17.10;;;2.92;;
60859;SDS011;46694;54.382;9.708;2023-04-26T02:45:09;12.00;;;2.00;;
60859;SDS011;46694;54.382;9.708;2023-04-26T02:47:49;9.52;;;2.20;;
60859;SDS011;46694;54.382;9.708;2023-04-26T02:50:29;12.43;;;2.63;;
60859;SDS011;46694;54.382;9.708;2023-04-26T02:53:08;11.15;;;2.28;;
60859;SDS011;46694;54.382;9.708;2023-04-26T02:55:48;10.57;;;2.03;;
60859;SDS011;46694;54.382;9.708;2023-04-26T02:58:27;7.28;;;2.15;;
60859;SDS011;46694;54.382;9.708;2023-04-26T03:01:07;24.08;;;2.97;;
60859;SDS011;46694;54.382;9.708;2023-04-26T03:03:46;17.33;;;2.78;;
60859;SDS011;46694;54.382;9.708;2023-04-26T03:06:26;11.88;;;2.35;;
60859;SDS011;46694;54.382;9.708;2023-04-26T03:09:06;6.25;;;2.25;;
60859;SDS011;46694;54.382;9.708;2023-04-26T03:11:45;11.40;;;2.75;;
60859;SDS011;46694;54.382;9.708;2023-04-26T03:14:26;12.77;;;2.35;;
60859;SDS011;46694;54.382;9.708;2023-04-26T03:17:06;14.40;;;2.90;;
60859;SDS011;46694;54.382;9.708;2023-04-26T03:19:45;11.73;;;2.28;;
60859;SDS011;46694;54.382;9.708;2023-04-26T03:22:25;21.10;;;5.45;;
60859;SDS011;46694;54.382;9.708;2023-04-26T03:25:05;16.20;;;2.70;;
60859;SDS011;46694;54.382;9.708;2023-04-26T03:27:45;11.30;;;2.78;;
60859;SDS011;46694;54.382;9.708;2023-04-26T03:30:24;11.25;;;2.40;;
60859;SDS011;46694;54.382;9.708;2023-04-26T03:33:04;10.25;;;2.05;;
60859;SDS011;46694;54.382;9.708;2023-04-26T03:35:43;17.08;;;3.22;;
60859;SDS011;46694;54.382;9.708;2023-04-26T03:38:23;18.33;;;2.40;;
60859;SDS011;46694;54.382;9.708;2023-04-26T03:41:03;12.40;;;3.25;;
60859;SDS011;46694;54.382;9.708;2023-04-26T03:43:43;9.30;;;2.60;;
60859;SDS011;46694;54.382;9.708;2023-04-26T03:46:22;13.82;;;2.80;;
60859;SDS011;46694;54.382;9.708;2023-04-26T03:49:02;10.77;;;2.63;;
60859;SDS011;46694;54.382;9.708;2023-04-26T03:51:42;10.55;;;2.45;;
60859;SDS011;46694;54.382;9.708;2023-04-26T03:54:21;8.48;;;3.13;;
60859;SDS011;46694;54.382;9.708;2023-04-26T03:57:00;14.63;;;3.22;;
60859;SDS011;46694;54.382;9.708;2023-04-26T03:59:40;8.30;;;2.88;;
60859;SDS011;46694;54.382;9.708;2023-04-26T04:02:19;8.52;;;2.78;;
60859;SDS011;46694;54.382;9.708;2023-04-26T04:04:59;23.23;;;3.33;;
60859;SDS011;46694;54.382;9.708;2023-04-26T04:07:39;19.90;;;3.53;;
60859;SDS011;46694;54.382;9.708;2023-04-26T04:10:18;9.25;;;3.45;;
60859;SDS011;46694;54.382;9.708;2023-04-26T04:12:58;5.68;;;2.70;;
60859;SDS011;46694;54.382;9.708;2023-04-26T04:15:38;15.18;;;2.95;;
60859;SDS011;46694;54.382;9.708;2023-04-26T04:18:17;13.75;;;3.10;;
60859;SDS011;46694;54.382;9.708;2023-04-26T04:20:57;12.23;;;2.67;;
60859;SDS011;46694;54.382;9.708;2023-04-26T04:23:36;19.40;;;3.42;;
60859;SDS011;46694;54.382;9.708;2023-04-26T04:26:16;12.68;;;3.90;;
60859;SDS011;46694;54.382;9.708;2023-04-26T04:28:56;19.92;;;3.53;;
60859;SDS011;46694;54.382;9.708;2023-04-26T04:31:40;12.55;;;3.45;;
60859;SDS011;46694;54.382;9.708;2023-04-26T04:34:20;8.40;;;2.63;;
60859;SDS011;46694;54.382;9.708;2023-04-26T04:37:01;6.68;;;2.95;;
60859;SDS011;46694;54.382;9.708;2023-04-26T04:39:41;11.52;;;3.70;;
60859;SDS011;46694;54.382;9.708;2023-04-26T04:42:21;12.43;;;2.70;;
60859;SDS011;46694;54.382;9.708;2023-04-26T04:45:01;6.95;;;2.95;;
60859;SDS011;46694;54.382;9.708;2023-04-26T04:47:43;12.80;;;3.30;;
60859;SDS011;46694;54.382;9.708;2023-04-26T04:50:23;11.95;;;3.65;;
60859;SDS011;46694;54.382;9.708;2023-04-26T04:53:02;11.38;;;2.95;;
60859;SDS011;46694;54.382;9.708;2023-04-26T04:55:42;7.85;;;2.05;;
60859;SDS011;46694;54.382;9.708;2023-04-26T04:58:21;9.38;;;2.28;;
60859;SDS011;46694;54.382;9.708;2023-04-26T05:01:01;7.40;;;2.10;;
60859;SDS011;46694;54.382;9.708;2023-04-26T05:03:40;10.63;;;3.28;;
60859;SDS011;46694;54.382;9.708;2023-04-26T05:06:20;8.30;;;2.72;;
60859;SDS011;46694;54.382;9.708;2023-04-26T05:09:00;17.38;;;3.00;;
60859;SDS011;46694;54.382;9.708;2023-04-26T05:11:39;8.80;;;2.95;;
60859;SDS011;46694;54.382;9.708;2023-04-26T05:14:19;9.65;;;1.85;;
60859;SDS011;46694;54.382;9.708;2023-04-26T05:16:58;10.95;;;4.80;;
60859;SDS011;46694;54.382;9.708;2023-04-26T05:19:38;6.15;;;2.50;;
60859;SDS011;46694;54.382;9.708;2023-04-26T05:22:18;13.43;;;3.25;;
60859;SDS011;46694;54.382;9.708;2023-04-26T05:24:59;7.90;;;2.50;;
60859;SDS011;46694;54.382;9.708;2023-04-26T05:27:38;10.95;;;2.28;;
60859;SDS011;46694;54.382;9.708;2023-04-26T05:30:19;7.43;;;2.85;;
60859;SDS011;46694;54.382;9.708;2023-04-26T05:32:59;12.93;;;2.97;;
60859;SDS011;46694;54.382;9.708;2023-04-26T05:35:38;9.77;;;2.55;;
60859;SDS011;46694;54.382;9.708;2023-04-26T05:38:19;7.30;;;2.40;;
60859;SDS011;46694;54.382;9.708;2023-04-26T05:40:59;9.02;;;3.22;;
60859;SDS011;46694;54.382;9.708;2023-04-26T05:43:39;8.35;;;3.00;;
60859;SDS011;46694;54.382;9.708;2023-04-26T05:46:18;14.85;;;2.67;;
60859;SDS011;46694;54.382;9.708;2023-04-26T05:48:58;8.93;;;2.42;;
60859;SDS011;46694;54.382;9.708;2023-04-26T05:51:38;17.10;;;2.75;;
60859;SDS011;46694;54.382;9.708;2023-04-26T05:54:17;15.45;;;2.78;;
60859;SDS011;46694;54.382;9.708;2023-04-26T05:56:56;5.90;;;2.67;;
60859;SDS011;46694;54.382;9.708;2023-04-26T05:59:38;15.20;;;2.93;;
60859;SDS011;46694;54.382;9.708;2023-04-26T06:02:18;8.77;;;2.63;;
60859;SDS011;46694;54.382;9.708;2023-04-26T06:04:58;12.03;;;2.90;;
60859;SDS011;46694;54.382;9.708;2023-04-26T06:07:38;13.00;;;2.60;;
60859;SDS011;46694;54.382;9.708;2023-04-26T06:10:17;10.00;;;2.20;;
60859;SDS011;46694;54.382;9.708;2023-04-26T06:12:57;7.63;;;2.37;;
60859;SDS011;46694;54.382;9.708;2023-04-26T06:15:37;15.03;;;2.33;;
60859;SDS011;46694;54.382;9.708;2023-04-26T06:18:16;6.47;;;2.50;;
60859;SDS011;46694;54.382;9.708;2023-04-26T06:20:56;6.03;;;2.23;;
60859;SDS011;46694;54.382;9.708;2023-04-26T06:23:35;7.10;;;3.10;;
60859;SDS011;46694;54.382;9.708;2023-04-26T06:26:15;8.27;;;1.80;;
60859;SDS011;46694;54.382;9.708;2023-04-26T06:28:54;15.40;;;2.20;;
60859;SDS011;46694;54.382;9.708;2023-04-26T06:31:34;5.97;;;1.93;;
60859;SDS011;46694;54.382;9.708;2023-04-26T06:34:13;6.60;;;2.00;;
60859;SDS011;46694;54.382;9.708;2023-04-26T06:36:53;11.10;;;2.50;;
60859;SDS011;46694;54.382;9.708;2023-04-26T06:39:33;12.03;;;2.00;;
60859;SDS011;46694;54.382;9.708;2023-04-26T06:42:12;9.13;;;2.17;;
60859;SDS011;46694;54.382;9.708;2023-04-26T06:44:51;6.70;;;2.00;;
60859;SDS011;46694;54.382;9.708;2023-04-26T06:47:31;8.00;;;2.07;;
60859;SDS011;46694;54.382;9.708;2023-04-26T06:50:11;5.43;;;1.70;;
60859;SDS011;46694;54.382;9.708;2023-04-26T06:52:50;6.90;;;1.80;;
60859;SDS011;46694;54.382;9.708;2023-04-26T06:55:30;8.33;;;1.53;;
60859;SDS011;46694;54.382;9.708;2023-04-26T06:58:09;5.90;;;1.57;;
60859;SDS011;46694;54.382;9.708;2023-04-26T07:00:48;6.30;;;1.87;;
60859;SDS011;46694;54.382;9.708;2023-04-26T07:03:28;9.70;;;1.70;;
60859;SDS011;46694;54.382;9.708;2023-04-26T07:06:08;2.67;;;1.23;;
60859;SDS011;46694;54.382;9.708;2023-04-26T07:08:48;7.40;;;2.10;;
60859;SDS011;46694;54.382;9.708;2023-04-26T07:11:27;7.27;;;1.97;;
60859;SDS011;46694;54.382;9.708;2023-04-26T07:14:09;6.10;;;1.70;;
60859;SDS011;46694;54.382;9.708;2023-04-26T07:16:49;5.30;;;1.50;;
60859;SDS011;46694;54.382;9.708;2023-04-26T07:19:29;5.10;;;1.67;;
60859;SDS011;46694;54.382;9.708;2023-04-26T07:22:08;8.23;;;1.77;;
60859;SDS011;46694;54.382;9.708;2023-04-26T07:24:48;8.93;;;2.27;;
60859;SDS011;46694;54.382;9.708;2023-04-26T07:27:28;10.53;;;1.80;;
60859;SDS011;46694;54.382;9.708;2023-04-26T07:30:09;5.20;;;1.30;;
60859;SDS011;46694;54.382;9.708;2023-04-26T07:32:48;4.00;;;1.30;;
60859;SDS011;46694;54.382;9.708;2023-04-26T07:35:28;11.50;;;1.77;;
60859;SDS011;46694;54.382;9.708;2023-04-26T07:38:08;6.17;;;1.60;;
60859;SDS011;46694;54.382;9.708;2023-04-26T07:40:48;8.90;;;1.70;;
60859;SDS011;46694;54.382;9.708;2023-04-26T07:43:29;7.20;;;2.23;;
60859;SDS011;46694;54.382;9.708;2023-04-26T07:46:08;9.57;;;1.77;;
60859;SDS011;46694;54.382;9.708;2023-04-26T07:48:48;10.40;;;1.90;;
60859;SDS011;46694;54.382;9.708;2023-04-26T07:51:28;2.10;;;0.93;;
60859;SDS011;46694;54.382;9.708;2023-04-26T07:54:07;4.03;;;1.37;;
60859;SDS011;46694;54.382;9.708;2023-04-26T07:56:46;7.03;;;1.70;;
60859;SDS011;46694;54.382;9.708;2023-04-26T07:59:26;3.50;;;1.30;;
60859;SDS011;46694;54.382;9.708;2023-04-26T08:02:05;7.17;;;1.23;;
60859;SDS011;46694;54.382;9.708;2023-04-26T08:04:48;4.33;;;1.50;;
60859;SDS011;46694;54.382;9.708;2023-04-26T08:07:30;9.80;;;1.67;;
60859;SDS011;46694;54.382;9.708;2023-04-26T08:10:10;2.20;;;1.00;;
60859;SDS011;46694;54.382;9.708;2023-04-26T08:12:50;6.43;;;1.00;;
60859;SDS011;46694;54.382;9.708;2023-04-26T08:15:29;6.80;;;1.33;;
60859;SDS011;46694;54.382;9.708;2023-04-26T08:18:10;6.00;;;1.13;;
60859;SDS011;46694;54.382;9.708;2023-04-26T08:20:49;8.00;;;1.37;;
60859;SDS011;46694;54.382;9.708;2023-04-26T08:23:33;5.60;;;1.17;;
60859;SDS011;46694;54.382;9.708;2023-04-26T08:26:14;5.53;;;1.00;;
60859;SDS011;46694;54.382;9.708;2023-04-26T08:28:53;2.80;;;1.10;;
60859;SDS011;46694;54.382;9.708;2023-04-26T08:31:35;5.60;;;1.40;;
60859;SDS011;46694;54.382;9.708;2023-04-26T08:34:14;2.30;;;1.30;;
60859;SDS011;46694;54.382;9.708;2023-04-26T08:36:54;7.90;;;1.20;;
60859;SDS011;46694;54.382;9.708;2023-04-26T08:39:33;4.10;;;1.03;;
60859;SDS011;46694;54.382;9.708;2023-04-26T08:42:13;7.97;;;1.37;;
60859;SDS011;46694;54.382;9.708;2023-04-26T08:44:54;4.77;;;1.10;;
60859;SDS011;46694;54.382;9.708;2023-04-26T08:47:43;4.63;;;0.70;;
60859;SDS011;46694;54.382;9.708;2023-04-26T08:50:27;6.10;;;1.10;;
60859;SDS011;46694;54.382;9.708;2023-04-26T08:53:07;5.60;;;1.80;;
60859;SDS011;46694;54.382;9.708;2023-04-26T08:55:48;5.60;;;1.30;;
60859;SDS011;46694;54.382;9.708;2023-04-26T08:58:28;7.40;;;1.60;;
60859;SDS011;46694;54.382;9.708;2023-04-26T09:01:08;6.50;;;1.33;;
60859;SDS011;46694;54.382;9.708;2023-04-26T09:03:53;2.50;;;1.53;;
60859;SDS011;46694;54.382;9.708;2023-04-26T09:06:34;2.63;;;0.70;;
60859;SDS011;46694;54.382;9.708;2023-04-26T09:09:14;2.43;;;0.70;;
60859;SDS011;46694;54.382;9.708;2023-04-26T09:11:58;1.67;;;0.60;;
60859;SDS011;46694;54.382;9.708;2023-04-26T09:14:39;2.33;;;0.90;;
60859;SDS011;46694;54.382;9.708;2023-04-26T09:17:26;3.03;;;0.77;;
60859;SDS011;46694;54.382;9.708;2023-04-26T09:23:08;1.97;;;0.60;;
60859;SDS011;46694;54.382;9.708;2023-04-26T09:25:48;2.23;;;0.50;;
60859;SDS011;46694;54.382;9.708;2023-04-26T09:28:27;6.40;;;1.00;;
60859;SDS011;46694;54.382;9.708;2023-04-26T09:31:07;5.27;;;0.83;;
60859;SDS011;46694;54.382;9.708;2023-04-26T09:33:56;3.30;;;0.97;;
60859;SDS011;46694;54.382;9.708;2023-04-26T09:36:50;3.37;;;0.90;;
60859;SDS011;46694;54.382;9.708;2023-04-26T09:39:37;5.90;;;0.90;;
60859;SDS011;46694;54.382;9.708;2023-04-26T09:42:18;4.97;;;0.70;;
60859;SDS011;46694;54.382;9.708;2023-04-26T09:45:07;4.53;;;0.90;;
60859;SDS011;46694;54.382;9.708;2023-04-26T09:47:47;4.90;;;1.07;;
60859;SDS011;46694;54.382;9.708;2023-04-26T09:50:27;8.47;;;1.60;;
60859;SDS011;46694;54.382;9.708;2023-04-26T09:53:08;4.80;;;0.80;;
60859;SDS011;46694;54.382;9.708;2023-04-26T09:55:48;7.80;;;1.10;;
60859;SDS011;46694;54.382;9.708;2023-04-26T09:58:28;3.93;;;0.90;;
60859;SDS011;46694;54.382;9.708;2023-04-26T10:01:07;1.83;;;0.70;;
60859;SDS011;46694;54.382;9.708;2023-04-26T10:03:49;3.07;;;1.00;;
60859;SDS011;46694;54.382;9.708;2023-04-26T10:06:29;2.60;;;0.90;;
60859;SDS011;46694;54.382;9.708;2023-04-26T10:09:10;5.20;;;0.87;;
60859;SDS011;46694;54.382;9.708;2023-04-26T10:11:50;2.13;;;0.70;;
60859;SDS011;46694;54.382;9.708;2023-04-26T10:14:29;4.27;;;1.07;;
60859;SDS011;46694;54.382;9.708;2023-04-26T10:17:09;2.20;;;0.80;;
60859;SDS011;46694;54.382;9.708;2023-04-26T10:19:51;4.20;;;0.60;;
60859;SDS011;46694;54.382;9.708;2023-04-26T10:22:44;2.93;;;0.80;;
60859;SDS011;46694;54.382;9.708;2023-04-26T10:25:36;2.60;;;0.87;;
60859;SDS011;46694;54.382;9.708;2023-04-26T10:28:18;3.00;;;0.87;;
60859;SDS011;46694;54.382;9.708;2023-04-26T10:31:23;3.23;;;0.60;;
60859;SDS011;46694;54.382;9.708;2023-04-26T10:34:19;2.53;;;1.00;;
60859;SDS011;46694;54.382;9.708;2023-04-26T10:37:09;2.20;;;0.50;;
60859;SDS011;46694;54.382;9.708;2023-04-26T10:39:48;7.70;;;1.20;;
60859;SDS011;46694;54.382;9.708;2023-04-26T10:42:30;8.93;;;1.40;;
60859;SDS011;46694;54.382;9.708;2023-04-26T10:45:26;4.03;;;1.00;;
60859;SDS011;46694;54.382;9.708;2023-04-26T10:48:17;10.57;;;0.97;;
60859;SDS011;46694;54.382;9.708;2023-04-26T10:59:08;6.30;;;0.70;;
60859;SDS011;46694;54.382;9.708;2023-04-26T11:01:48;3.13;;;0.70;;
60859;SDS011;46694;54.382;9.708;2023-04-26T11:07:36;3.93;;;1.10;;
60859;SDS011;46694;54.382;9.708;2023-04-26T11:10:21;2.23;;;1.00;;
60859;SDS011;46694;54.382;9.708;2023-04-26T11:13:01;8.10;;;0.97;;
60859;SDS011;46694;54.382;9.708;2023-04-26T11:15:41;2.60;;;1.00;;
60859;SDS011;46694;54.382;9.708;2023-04-26T11:18:21;4.53;;;1.30;;
60859;SDS011;46694;54.382;9.708;2023-04-26T11:21:01;7.30;;;1.00;;
60859;SDS011;46694;54.382;9.708;2023-04-26T11:23:53;2.87;;;1.13;;
60859;SDS011;46694;54.382;9.708;2023-04-26T11:26:33;10.00;;;2.10;;
60859;SDS011;46694;54.382;9.708;2023-04-26T11:29:17;4.00;;;1.00;;
60859;SDS011;46694;54.382;9.708;2023-04-26T11:31:57;3.43;;;0.90;;
60859;SDS011;46694;54.382;9.708;2023-04-26T11:34:37;6.10;;;1.00;;
60859;SDS011;46694;54.382;9.708;2023-04-26T11:37:17;5.60;;;1.43;;
60859;SDS011;46694;54.382;9.708;2023-04-26T11:39:57;5.13;;;1.23;;
60859;SDS011;46694;54.382;9.708;2023-04-26T11:42:36;2.10;;;0.70;;
60859;SDS011;46694;54.382;9.708;2023-04-26T11:45:16;2.40;;;1.00;;
60859;SDS011;46694;54.382;9.708;2023-04-26T11:47:56;7.17;;;1.07;;
60859;SDS011;46694;54.382;9.708;2023-04-26T11:50:36;6.53;;;1.17;;
60859;SDS011;46694;54.382;9.708;2023-04-26T11:53:16;7.90;;;1.10;;
60859;SDS011;46694;54.382;9.708;2023-04-26T11:55:56;1.77;;;0.80;;
60859;SDS011;46694;54.382;9.708;2023-04-26T11:58:36;7.30;;;1.40;;
60859;SDS011;46694;54.382;9.708;2023-04-26T12:01:19;2.03;;;0.90;;
60859;SDS011;46694;54.382;9.708;2023-04-26T12:04:08;7.03;;;1.23;;
60859;SDS011;46694;54.382;9.708;2023-04-26T12:06:48;1.80;;;0.97;;
60859;SDS011;46694;54.382;9.708;2023-04-26T12:09:29;1.27;;;0.70;;
60859;SDS011;46694;54.382;9.708;2023-04-26T12:12:12;1.30;;;0.53;;
60859;SDS011;46694;54.382;9.708;2023-04-26T12:14:51;1.40;;;0.80;;
60859;SDS011;46694;54.382;9.708;2023-04-26T12:17:30;5.50;;;1.20;;
60859;SDS011;46694;54.382;9.708;2023-04-26T12:20:10;1.17;;;0.77;;
60859;SDS011;46694;54.382;9.708;2023-04-26T12:25:52;3.87;;;0.70;;
60859;SDS011;46694;54.382;9.708;2023-04-26T12:28:34;4.43;;;0.87;;
60859;SDS011;46694;54.382;9.708;2023-04-26T12:31:13;4.37;;;1.30;;
60859;SDS011;46694;54.382;9.708;2023-04-26T12:33:53;6.97;;;2.13;;
60859;SDS011;46694;54.382;9.708;2023-04-26T12:36:32;5.97;;;0.90;;
60859;SDS011;46694;54.382;9.708;2023-04-26T12:39:13;7.00;;;1.40;;
60859;SDS011;46694;54.382;9.708;2023-04-26T12:41:53;5.43;;;1.43;;
60859;SDS011;46694;54.382;9.708;2023-04-26T12:44:33;12.90;;;1.80;;
60859;SDS011;46694;54.382;9.708;2023-04-26T12:47:12;7.10;;;1.33;;
60859;SDS011;46694;54.382;9.708;2023-04-26T12:49:52;6.23;;;1.27;;
60859;SDS011;46694;54.382;9.708;2023-04-26T12:52:31;9.50;;;1.73;;
60859;SDS011;46694;54.382;9.708;2023-04-26T12:55:13;5.27;;;1.40;;
60859;SDS011;46694;54.382;9.708;2023-04-26T12:57:53;4.40;;;0.77;;
60859;SDS011;46694;54.382;9.708;2023-04-26T13:00:33;4.50;;;1.00;;
60859;SDS011;46694;54.382;9.708;2023-04-26T13:03:13;4.57;;;1.20;;
60859;SDS011;46694;54.382;9.708;2023-04-26T13:05:52;2.07;;;0.93;;
60859;SDS011;46694;54.382;9.708;2023-04-26T13:08:31;2.97;;;1.33;;
60859;SDS011;46694;54.382;9.708;2023-04-26T13:11:11;6.77;;;1.10;;
60859;SDS011;46694;54.382;9.708;2023-04-26T13:13:51;5.87;;;1.23;;
60859;SDS011;46694;54.382;9.708;2023-04-26T13:16:31;6.07;;;1.90;;
60859;SDS011;46694;54.382;9.708;2023-04-26T13:19:11;3.90;;;1.20;;
60859;SDS011;46694;54.382;9.708;2023-04-26T13:21:50;7.57;;;1.27;;
60859;SDS011;46694;54.382;9.708;2023-04-26T13:24:30;8.57;;;1.87;;
60859;SDS011;46694;54.382;9.708;2023-04-26T13:27:10;10.47;;;1.80;;
60859;SDS011;46694;54.382;9.708;2023-04-26T13:29:49;6.30;;;1.90;;
60859;SDS011;46694;54.382;9.708;2023-04-26T13:32:32;7.30;;;1.53;;
60859;SDS011;46694;54.382;9.708;2023-04-26T13:35:12;2.90;;;1.30;;
60859;SDS011;46694;54.382;9.708;2023-04-26T13:37:52;4.00;;;1.10;;
60859;SDS011;46694;54.382;9.708;2023-04-26T13:40:31;5.43;;;1.20;;
60859;SDS011;46694;54.382;9.708;2023-04-26T13:43:11;14.87;;;2.10;;
60859;SDS011;46694;54.382;9.708;2023-04-26T13:45:51;6.50;;;1.30;;
60859;SDS011;46694;54.382;9.708;2023-04-26T13:48:30;4.07;;;1.30;;
60859;SDS011;46694;54.382;9.708;2023-04-26T13:51:10;3.47;;;2.17;;
60859;SDS011;46694;54.382;9.708;2023-04-26T13:53:50;2.83;;;1.20;;
60859;SDS011;46694;54.382;9.708;2023-04-26T13:56:29;13.50;;;6.50;;
60859;SDS011;46694;54.382;9.708;2023-04-26T13:59:10;4.73;;;1.30;;
60859;SDS011;46694;54.382;9.708;2023-04-26T14:01:50;9.80;;;4.33;;
60859;SDS011;46694;54.382;9.708;2023-04-26T14:04:29;6.40;;;1.20;;
60859;SDS011;46694;54.382;9.708;2023-04-26T14:07:09;2.77;;;1.00;;
60859;SDS011;46694;54.382;9.708;2023-04-26T14:09:49;19.60;;;2.07;;
60859;SDS011;46694;54.382;9.708;2023-04-26T14:12:29;7.47;;;2.00;;
60859;SDS011;46694;54.382;9.708;2023-04-26T14:15:10;2.37;;;1.43;;
60859;SDS011;46694;54.382;9.708;2023-04-26T14:17:50;3.37;;;1.13;;
60859;SDS011;46694;54.382;9.708;2023-04-26T14:20:29;8.33;;;1.50;;
60859;SDS011;46694;54.382;9.708;2023-04-26T14:23:09;9.90;;;1.73;;
60859;SDS011;46694;54.382;9.708;2023-04-26T14:25:52;1.57;;;1.07;;
60859;SDS011;46694;54.382;9.708;2023-04-26T14:28:32;5.37;;;1.03;;
60859;SDS011;46694;54.382;9.708;2023-04-26T14:31:12;4.30;;;1.37;;
60859;SDS011;46694;54.382;9.708;2023-04-26T14:33:51;6.10;;;1.37;;
60859;SDS011;46694;54.382;9.708;2023-04-26T14:36:31;5.70;;;1.10;;
60859;SDS011;46694;54.382;9.708;2023-04-26T14:39:12;12.40;;;1.30;;
60859;SDS011;46694;54.382;9.708;2023-04-26T14:41:52;6.97;;;1.17;;
60859;SDS011;46694;54.382;9.708;2023-04-26T14:44:33;6.60;;;1.40;;
60859;SDS011;46694;54.382;9.708;2023-04-26T14:47:12;7.03;;;1.40;;
60859;SDS011;46694;54.382;9.708;2023-04-26T14:49:52;2.90;;;1.07;;
60859;SDS011;46694;54.382;9.708;2023-04-26T14:52:35;3.50;;;1.13;;
60859;SDS011;46694;54.382;9.708;2023-04-26T14:55:17;8.53;;;1.10;;
60859;SDS011;46694;54.382;9.708;2023-04-26T14:58:00;7.03;;;2.03;;
60859;SDS011;46694;54.382;9.708;2023-04-26T15:00:39;4.87;;;1.13;;
60859;SDS011;46694;54.382;9.708;2023-04-26T15:03:20;8.00;;;1.90;;
60859;SDS011;46694;54.382;9.708;2023-04-26T15:06:00;9.90;;;1.70;;
60859;SDS011;46694;54.382;9.708;2023-04-26T15:08:39;2.67;;;1.07;;
60859;SDS011;46694;54.382;9.708;2023-04-26T15:11:19;8.80;;;1.23;;
60859;SDS011;46694;54.382;9.708;2023-04-26T15:13:59;7.00;;;1.20;;
60859;SDS011;46694;54.382;9.708;2023-04-26T15:16:38;4.10;;;1.07;;
60859;SDS011;46694;54.382;9.708;2023-04-26T15:19:18;2.70;;;1.10;;
60859;SDS011;46694;54.382;9.708;2023-04-26T15:21:58;7.77;;;1.20;;
60859;SDS011;46694;54.382;9.708;2023-04-26T15:24:38;8.60;;;1.90;;
60859;SDS011;46694;54.382;9.708;2023-04-26T15:27:18;5.30;;;1.30;;
60859;SDS011;46694;54.382;9.708;2023-04-26T15:29:58;6.63;;;1.40;;
60859;SDS011;46694;54.382;9.708;2023-04-26T15:32:37;7.50;;;1.50;;
60859;SDS011;46694;54.382;9.708;2023-04-26T15:35:17;6.97;;;2.13;;
60859;SDS011;46694;54.382;9.708;2023-04-26T15:37:56;17.27;;;1.87;;
60859;SDS011;46694;54.382;9.708;2023-04-26T15:40:36;8.10;;;1.07;;
60859;SDS011;46694;54.382;9.708;2023-04-26T15:43:15;6.90;;;1.27;;
60859;SDS011;46694;54.382;9.708;2023-04-26T15:45:55;14.90;;;2.10;;
60859;SDS011;46694;54.382;9.708;2023-04-26T15:48:35;4.57;;;1.60;;
60859;SDS011;46694;54.382;9.708;2023-04-26T15:51:14;6.60;;;1.63;;
60859;SDS011;46694;54.382;9.708;2023-04-26T15:53:54;8.40;;;2.37;;
60859;SDS011;46694;54.382;9.708;2023-04-26T15:56:33;5.40;;;1.40;;
60859;SDS011;46694;54.382;9.708;2023-04-26T15:59:13;5.30;;;1.70;;
60859;SDS011;46694;54.382;9.708;2023-04-26T16:01:53;8.97;;;1.67;;
60859;SDS011;46694;54.382;9.708;2023-04-26T16:04:33;5.43;;;1.33;;
60859;SDS011;46694;54.382;9.708;2023-04-26T16:07:13;10.73;;;1.90;;
60859;SDS011;46694;54.382;9.708;2023-04-26T16:12:45;4.73;;;1.47;;
60859;SDS011;46694;54.382;9.708;2023-04-26T16:15:24;4.93;;;1.50;;
60859;SDS011;46694;54.382;9.708;2023-04-26T16:18:04;4.83;;;1.60;;
60859;SDS011;46694;54.382;9.708;2023-04-26T16:20:43;3.93;;;1.30;;
60859;SDS011;46694;54.382;9.708;2023-04-26T16:23:23;3.10;;;1.13;;